sensor_id;sensor_type;location;lat;lon;timestamp;P1;durP1;ratioP1;P2;durP2;ratioP2
6053;SDS011;3055;50.886;14.814;2022-11-06T00:00:37;13.90;;;10.60;;
6053;SDS011;3055;50.886;14.814;2022-11-06T00:03:04;12.17;;;10.67;;
6053;SDS011;3055;50.886;14.814;2022-11-06T00:05:33;13.77;;;10.83;;
6053;SDS011;3055;50.886;14.814;2022-11-06T00:08:28;13.37;;;10.70;;
6053;SDS011;3055;50.886;14.814;2022-11-06T00:10:56;12.40;;;11.10;;
6053;SDS011;3055;50.886;14.814;2022-11-06T00:13:23;14.00;;;11.97;;
6053;SDS011;3055;50.886;14.814;2022-11-06T00:15:50;14.23;;;12.17;;
6053;SDS011;3055;50.886;14.814;2022-11-06T00:18:17;15.27;;;11.07;;
6053;SDS011;3055;50.886;14.814;2022-11-06T00:20:45;15.47;;;11.77;;
6053;SDS011;3055;50.886;14.814;2022-11-06T00:23:12;15.73;;;13.80;;
6053;SDS011;3055;50.886;14.814;2022-11-06T00:25:40;16.10;;;12.10;;
6053;SDS011;3055;50.886;14.814;2022-11-06T00:28:07;13.63;;;11.20;;
6053;SDS011;3055;50.886;14.814;2022-11-06T00:30:34;13.87;;;11.73;;
6053;SDS011;3055;50.886;14.814;2022-11-06T00:33:01;13.70;;;11.43;;
6053;SDS011;3055;50.886;14.814;2022-11-06T00:35:28;15.53;;;12.47;;
6053;SDS011;3055;50.886;14.814;2022-11-06T00:37:56;15.77;;;12.90;;
6053;SDS011;3055;50.886;14.814;2022-11-06T00:40:23;16.93;;;13.00;;
6053;SDS011;3055;50.886;14.814;2022-11-06T00:42:54;13.93;;;11.90;;
6053;SDS011;3055;50.886;14.814;2022-11-06T00:45:21;15.63;;;11.60;;
6053;SDS011;3055;50.886;14.814;2022-11-06T00:47:48;15.77;;;11.63;;
6053;SDS011;3055;50.886;14.814;2022-11-06T00:50:15;15.03;;;11.73;;
6053;SDS011;3055;50.886;14.814;2022-11-06T00:52:42;13.77;;;11.13;;
6053;SDS011;3055;50.886;14.814;2022-11-06T00:55:11;15.63;;;11.83;;
6053;SDS011;3055;50.886;14.814;2022-11-06T00:57:37;13.77;;;12.20;;
6053;SDS011;3055;50.886;14.814;2022-11-06T01:00:05;16.10;;;12.33;;
6053;SDS011;3055;50.886;14.814;2022-11-06T01:02:32;13.90;;;11.80;;
6053;SDS011;3055;50.886;14.814;2022-11-06T01:04:59;14.10;;;10.80;;
6053;SDS011;3055;50.886;14.814;2022-11-06T01:07:26;14.53;;;10.87;;
6053;SDS011;3055;50.886;14.814;2022-11-06T01:09:53;12.67;;;10.97;;
6053;SDS011;3055;50.886;14.814;2022-11-06T01:12:22;13.67;;;11.20;;
6053;SDS011;3055;50.886;14.814;2022-11-06T01:14:49;13.63;;;11.20;;
6053;SDS011;3055;50.886;14.814;2022-11-06T01:17:15;13.37;;;10.47;;
6053;SDS011;3055;50.886;14.814;2022-11-06T01:19:42;12.47;;;10.47;;
6053;SDS011;3055;50.886;14.814;2022-11-06T01:22:09;13.63;;;10.87;;
6053;SDS011;3055;50.886;14.814;2022-11-06T01:24:36;13.20;;;11.03;;
6053;SDS011;3055;50.886;14.814;2022-11-06T01:27:03;15.70;;;11.43;;
6053;SDS011;3055;50.886;14.814;2022-11-06T01:29:31;13.70;;;11.53;;
6053;SDS011;3055;50.886;14.814;2022-11-06T01:31:58;14.57;;;12.03;;
6053;SDS011;3055;50.886;14.814;2022-11-06T01:34:25;16.33;;;11.97;;
6053;SDS011;3055;50.886;14.814;2022-11-06T01:36:52;15.20;;;11.93;;
6053;SDS011;3055;50.886;14.814;2022-11-06T01:39:19;14.00;;;11.30;;
6053;SDS011;3055;50.886;14.814;2022-11-06T01:41:47;16.73;;;12.37;;
6053;SDS011;3055;50.886;14.814;2022-11-06T01:47:21;15.10;;;11.97;;
6053;SDS011;3055;50.886;14.814;2022-11-06T01:49:50;16.73;;;12.87;;
6053;SDS011;3055;50.886;14.814;2022-11-06T01:52:20;16.40;;;11.87;;
6053;SDS011;3055;50.886;14.814;2022-11-06T01:54:50;20.87;;;13.40;;
6053;SDS011;3055;50.886;14.814;2022-11-06T01:57:20;14.73;;;11.40;;
6053;SDS011;3055;50.886;14.814;2022-11-06T01:59:47;12.93;;;11.43;;
6053;SDS011;3055;50.886;14.814;2022-11-06T02:02:17;13.87;;;11.90;;
6053;SDS011;3055;50.886;14.814;2022-11-06T02:04:47;17.87;;;12.47;;
6053;SDS011;3055;50.886;14.814;2022-11-06T02:07:14;14.90;;;12.33;;
6053;SDS011;3055;50.886;14.814;2022-11-06T02:09:43;14.23;;;12.23;;
6053;SDS011;3055;50.886;14.814;2022-11-06T02:12:12;13.00;;;11.17;;
6053;SDS011;3055;50.886;14.814;2022-11-06T02:14:47;13.77;;;11.47;;
6053;SDS011;3055;50.886;14.814;2022-11-06T02:17:24;14.57;;;12.43;;
6053;SDS011;3055;50.886;14.814;2022-11-06T02:20:02;16.33;;;12.37;;
6053;SDS011;3055;50.886;14.814;2022-11-06T02:22:39;12.70;;;10.80;;
6053;SDS011;3055;50.886;14.814;2022-11-06T02:25:33;13.57;;;11.00;;
6053;SDS011;3055;50.886;14.814;2022-11-06T02:28:11;12.93;;;10.97;;
6053;SDS011;3055;50.886;14.814;2022-11-06T02:30:44;15.67;;;11.57;;
6053;SDS011;3055;50.886;14.814;2022-11-06T02:33:13;14.97;;;12.00;;
6053;SDS011;3055;50.886;14.814;2022-11-06T02:35:44;15.43;;;12.87;;
6053;SDS011;3055;50.886;14.814;2022-11-06T02:38:17;17.60;;;13.00;;
6053;SDS011;3055;50.886;14.814;2022-11-06T02:40:50;15.93;;;12.70;;
6053;SDS011;3055;50.886;14.814;2022-11-06T02:43:21;16.13;;;12.77;;
6053;SDS011;3055;50.886;14.814;2022-11-06T02:45:54;18.13;;;13.40;;
6053;SDS011;3055;50.886;14.814;2022-11-06T02:48:26;20.87;;;15.73;;
6053;SDS011;3055;50.886;14.814;2022-11-06T02:50:56;23.63;;;16.93;;
6053;SDS011;3055;50.886;14.814;2022-11-06T02:53:26;23.20;;;16.03;;
6053;SDS011;3055;50.886;14.814;2022-11-06T02:55:56;27.03;;;17.87;;
6053;SDS011;3055;50.886;14.814;2022-11-06T02:58:29;25.03;;;18.37;;
6053;SDS011;3055;50.886;14.814;2022-11-06T03:01:02;26.60;;;20.50;;
6053;SDS011;3055;50.886;14.814;2022-11-06T03:03:33;28.93;;;21.03;;
6053;SDS011;3055;50.886;14.814;2022-11-06T03:06:06;27.00;;;20.37;;
6053;SDS011;3055;50.886;14.814;2022-11-06T03:08:38;24.23;;;19.83;;
6053;SDS011;3055;50.886;14.814;2022-11-06T03:11:10;21.80;;;17.07;;
6053;SDS011;3055;50.886;14.814;2022-11-06T03:13:45;19.70;;;15.40;;
6053;SDS011;3055;50.886;14.814;2022-11-06T03:16:18;16.83;;;13.83;;
6053;SDS011;3055;50.886;14.814;2022-11-06T03:18:53;15.73;;;13.27;;
6053;SDS011;3055;50.886;14.814;2022-11-06T03:21:29;20.87;;;13.83;;
6053;SDS011;3055;50.886;14.814;2022-11-06T03:24:03;15.47;;;12.20;;
6053;SDS011;3055;50.886;14.814;2022-11-06T03:26:39;15.27;;;13.30;;
6053;SDS011;3055;50.886;14.814;2022-11-06T03:29:13;14.47;;;12.10;;
6053;SDS011;3055;50.886;14.814;2022-11-06T03:31:45;16.60;;;13.30;;
6053;SDS011;3055;50.886;14.814;2022-11-06T03:34:16;17.93;;;12.80;;
6053;SDS011;3055;50.886;14.814;2022-11-06T03:36:51;15.07;;;13.20;;
6053;SDS011;3055;50.886;14.814;2022-11-06T03:39:24;16.43;;;12.70;;
6053;SDS011;3055;50.886;14.814;2022-11-06T03:41:55;16.17;;;13.87;;
6053;SDS011;3055;50.886;14.814;2022-11-06T03:44:29;16.07;;;12.87;;
6053;SDS011;3055;50.886;14.814;2022-11-06T03:46:59;15.87;;;12.63;;
6053;SDS011;3055;50.886;14.814;2022-11-06T03:49:30;16.00;;;13.10;;
6053;SDS011;3055;50.886;14.814;2022-11-06T03:52:02;18.03;;;12.70;;
6053;SDS011;3055;50.886;14.814;2022-11-06T03:54:33;16.60;;;13.87;;
6053;SDS011;3055;50.886;14.814;2022-11-06T03:57:06;15.93;;;12.93;;
6053;SDS011;3055;50.886;14.814;2022-11-06T03:59:40;15.07;;;12.70;;
6053;SDS011;3055;50.886;14.814;2022-11-06T04:02:11;18.50;;;12.93;;
6053;SDS011;3055;50.886;14.814;2022-11-06T04:04:40;16.97;;;13.63;;
6053;SDS011;3055;50.886;14.814;2022-11-06T04:07:12;18.50;;;13.73;;
6053;SDS011;3055;50.886;14.814;2022-11-06T04:09:42;20.10;;;14.23;;
6053;SDS011;3055;50.886;14.814;2022-11-06T04:12:32;19.53;;;15.10;;
6053;SDS011;3055;50.886;14.814;2022-11-06T04:15:24;20.23;;;14.27;;
6053;SDS011;3055;50.886;14.814;2022-11-06T04:17:52;22.40;;;14.87;;
6053;SDS011;3055;50.886;14.814;2022-11-06T04:20:19;16.63;;;14.50;;
6053;SDS011;3055;50.886;14.814;2022-11-06T04:23:07;18.63;;;14.63;;
6053;SDS011;3055;50.886;14.814;2022-11-06T04:25:41;16.37;;;13.97;;
6053;SDS011;3055;50.886;14.814;2022-11-06T04:28:34;19.03;;;13.47;;
6053;SDS011;3055;50.886;14.814;2022-11-06T04:31:11;15.77;;;12.90;;
6053;SDS011;3055;50.886;14.814;2022-11-06T04:33:44;17.20;;;13.07;;
6053;SDS011;3055;50.886;14.814;2022-11-06T04:36:20;18.50;;;13.67;;
6053;SDS011;3055;50.886;14.814;2022-11-06T04:38:58;16.97;;;13.00;;
6053;SDS011;3055;50.886;14.814;2022-11-06T04:41:31;16.40;;;14.20;;
6053;SDS011;3055;50.886;14.814;2022-11-06T04:44:03;16.43;;;13.60;;
6053;SDS011;3055;50.886;14.814;2022-11-06T04:46:37;15.33;;;12.87;;
6053;SDS011;3055;50.886;14.814;2022-11-06T04:49:07;15.37;;;12.33;;
6053;SDS011;3055;50.886;14.814;2022-11-06T04:51:36;17.07;;;13.27;;
6053;SDS011;3055;50.886;14.814;2022-11-06T04:54:04;16.03;;;12.70;;
6053;SDS011;3055;50.886;14.814;2022-11-06T04:56:34;12.93;;;11.20;;
6053;SDS011;3055;50.886;14.814;2022-11-06T04:59:02;15.97;;;12.30;;
6053;SDS011;3055;50.886;14.814;2022-11-06T05:01:29;14.40;;;12.77;;
6053;SDS011;3055;50.886;14.814;2022-11-06T05:03:58;14.33;;;12.03;;
6053;SDS011;3055;50.886;14.814;2022-11-06T05:06:25;15.10;;;12.33;;
6053;SDS011;3055;50.886;14.814;2022-11-06T05:08:52;14.17;;;10.93;;
6053;SDS011;3055;50.886;14.814;2022-11-06T05:11:19;14.87;;;13.27;;
6053;SDS011;3055;50.886;14.814;2022-11-06T05:13:46;15.20;;;12.93;;
6053;SDS011;3055;50.886;14.814;2022-11-06T05:16:13;16.37;;;12.93;;
6053;SDS011;3055;50.886;14.814;2022-11-06T05:18:39;13.97;;;11.30;;
6053;SDS011;3055;50.886;14.814;2022-11-06T05:21:08;16.43;;;13.90;;
6053;SDS011;3055;50.886;14.814;2022-11-06T05:23:53;16.80;;;12.83;;
6053;SDS011;3055;50.886;14.814;2022-11-06T05:26:20;17.17;;;13.30;;
6053;SDS011;3055;50.886;14.814;2022-11-06T05:28:47;16.23;;;13.23;;
6053;SDS011;3055;50.886;14.814;2022-11-06T05:31:14;15.57;;;13.17;;
6053;SDS011;3055;50.886;14.814;2022-11-06T05:33:41;15.73;;;12.63;;
6053;SDS011;3055;50.886;14.814;2022-11-06T05:36:10;12.80;;;11.43;;
6053;SDS011;3055;50.886;14.814;2022-11-06T05:38:36;14.23;;;12.50;;
6053;SDS011;3055;50.886;14.814;2022-11-06T05:41:03;15.73;;;12.77;;
6053;SDS011;3055;50.886;14.814;2022-11-06T05:43:30;13.80;;;12.20;;
6053;SDS011;3055;50.886;14.814;2022-11-06T05:45:57;12.77;;;11.10;;
6053;SDS011;3055;50.886;14.814;2022-11-06T05:48:24;14.80;;;13.07;;
6053;SDS011;3055;50.886;14.814;2022-11-06T05:50:51;20.53;;;13.77;;
6053;SDS011;3055;50.886;14.814;2022-11-06T05:53:20;15.23;;;13.20;;
6053;SDS011;3055;50.886;14.814;2022-11-06T05:55:46;18.67;;;13.07;;
6053;SDS011;3055;50.886;14.814;2022-11-06T05:58:13;15.57;;;12.73;;
6053;SDS011;3055;50.886;14.814;2022-11-06T06:00:40;17.67;;;13.77;;
6053;SDS011;3055;50.886;14.814;2022-11-06T06:03:07;18.00;;;14.27;;
6053;SDS011;3055;50.886;14.814;2022-11-06T06:05:36;15.47;;;11.77;;
6053;SDS011;3055;50.886;14.814;2022-11-06T06:08:03;16.17;;;12.10;;
6053;SDS011;3055;50.886;14.814;2022-11-06T06:10:31;20.03;;;13.47;;
6053;SDS011;3055;50.886;14.814;2022-11-06T06:12:58;22.47;;;13.90;;
6053;SDS011;3055;50.886;14.814;2022-11-06T06:15:25;24.27;;;12.67;;
6053;SDS011;3055;50.886;14.814;2022-11-06T06:17:52;20.27;;;13.03;;
6053;SDS011;3055;50.886;14.814;2022-11-06T06:20:19;22.30;;;13.73;;
6053;SDS011;3055;50.886;14.814;2022-11-06T06:22:51;30.67;;;15.53;;
6053;SDS011;3055;50.886;14.814;2022-11-06T06:25:19;31.87;;;15.23;;
6053;SDS011;3055;50.886;14.814;2022-11-06T06:27:47;27.67;;;15.17;;
6053;SDS011;3055;50.886;14.814;2022-11-06T06:30:14;31.60;;;16.60;;
6053;SDS011;3055;50.886;14.814;2022-11-06T06:32:41;32.23;;;16.33;;
6053;SDS011;3055;50.886;14.814;2022-11-06T06:35:08;35.70;;;17.50;;
6053;SDS011;3055;50.886;14.814;2022-11-06T06:37:35;35.87;;;17.13;;
6053;SDS011;3055;50.886;14.814;2022-11-06T06:40:02;34.10;;;17.30;;
6053;SDS011;3055;50.886;14.814;2022-11-06T06:42:30;33.23;;;16.43;;
6053;SDS011;3055;50.886;14.814;2022-11-06T06:44:59;31.13;;;16.63;;
6053;SDS011;3055;50.886;14.814;2022-11-06T06:47:26;29.20;;;15.53;;
6053;SDS011;3055;50.886;14.814;2022-11-06T06:49:53;26.93;;;15.47;;
6053;SDS011;3055;50.886;14.814;2022-11-06T06:52:20;32.80;;;16.83;;
6053;SDS011;3055;50.886;14.814;2022-11-06T06:54:46;31.23;;;15.97;;
6053;SDS011;3055;50.886;14.814;2022-11-06T06:57:19;28.70;;;15.93;;
6053;SDS011;3055;50.886;14.814;2022-11-06T06:59:46;25.20;;;14.03;;
6053;SDS011;3055;50.886;14.814;2022-11-06T07:02:14;30.10;;;15.70;;
6053;SDS011;3055;50.886;14.814;2022-11-06T07:04:41;23.60;;;14.10;;
6053;SDS011;3055;50.886;14.814;2022-11-06T07:07:08;25.60;;;14.00;;
6053;SDS011;3055;50.886;14.814;2022-11-06T07:09:35;23.27;;;14.50;;
6053;SDS011;3055;50.886;14.814;2022-11-06T07:12:02;21.63;;;12.93;;
6053;SDS011;3055;50.886;14.814;2022-11-06T07:14:29;22.40;;;14.47;;
6053;SDS011;3055;50.886;14.814;2022-11-06T07:16:56;23.23;;;14.00;;
6053;SDS011;3055;50.886;14.814;2022-11-06T07:19:24;24.47;;;14.53;;
6053;SDS011;3055;50.886;14.814;2022-11-06T07:21:51;25.57;;;15.63;;
6053;SDS011;3055;50.886;14.814;2022-11-06T07:24:18;23.57;;;14.70;;
6053;SDS011;3055;50.886;14.814;2022-11-06T07:26:45;23.67;;;13.73;;
6053;SDS011;3055;50.886;14.814;2022-11-06T07:29:12;21.63;;;12.40;;
6053;SDS011;3055;50.886;14.814;2022-11-06T07:31:39;24.60;;;12.93;;
6053;SDS011;3055;50.886;14.814;2022-11-06T07:34:06;22.67;;;12.17;;
6053;SDS011;3055;50.886;14.814;2022-11-06T07:36:34;20.80;;;13.17;;
6053;SDS011;3055;50.886;14.814;2022-11-06T07:39:02;20.80;;;11.43;;
6053;SDS011;3055;50.886;14.814;2022-11-06T07:41:29;18.10;;;11.37;;
6053;SDS011;3055;50.886;14.814;2022-11-06T07:43:55;19.43;;;12.33;;
6053;SDS011;3055;50.886;14.814;2022-11-06T07:46:22;18.47;;;11.30;;
6053;SDS011;3055;50.886;14.814;2022-11-06T07:48:49;17.17;;;10.87;;
6053;SDS011;3055;50.886;14.814;2022-11-06T07:51:16;16.00;;;10.90;;
6053;SDS011;3055;50.886;14.814;2022-11-06T07:53:44;17.57;;;11.70;;
6053;SDS011;3055;50.886;14.814;2022-11-06T07:56:11;20.77;;;11.80;;
6053;SDS011;3055;50.886;14.814;2022-11-06T07:58:38;21.67;;;11.93;;
6053;SDS011;3055;50.886;14.814;2022-11-06T08:01:05;21.63;;;13.43;;
6053;SDS011;3055;50.886;14.814;2022-11-06T08:03:36;21.87;;;13.57;;
6053;SDS011;3055;50.886;14.814;2022-11-06T08:06:03;20.10;;;13.17;;
6053;SDS011;3055;50.886;14.814;2022-11-06T08:08:31;22.03;;;12.83;;
6053;SDS011;3055;50.886;14.814;2022-11-06T08:11:01;23.67;;;12.80;;
6053;SDS011;3055;50.886;14.814;2022-11-06T08:13:28;18.27;;;12.20;;
6053;SDS011;3055;50.886;14.814;2022-11-06T08:15:58;19.17;;;12.27;;
6053;SDS011;3055;50.886;14.814;2022-11-06T08:18:29;17.53;;;12.00;;
6053;SDS011;3055;50.886;14.814;2022-11-06T08:20:55;20.00;;;12.00;;
6053;SDS011;3055;50.886;14.814;2022-11-06T08:23:22;20.13;;;12.23;;
6053;SDS011;3055;50.886;14.814;2022-11-06T08:25:51;17.37;;;12.07;;
6053;SDS011;3055;50.886;14.814;2022-11-06T08:28:20;18.67;;;12.83;;
6053;SDS011;3055;50.886;14.814;2022-11-06T08:30:47;19.23;;;12.10;;
6053;SDS011;3055;50.886;14.814;2022-11-06T08:33:14;17.30;;;11.80;;
6053;SDS011;3055;50.886;14.814;2022-11-06T08:35:41;17.40;;;12.30;;
6053;SDS011;3055;50.886;14.814;2022-11-06T08:38:08;19.43;;;13.70;;
6053;SDS011;3055;50.886;14.814;2022-11-06T08:40:35;17.40;;;12.80;;
6053;SDS011;3055;50.886;14.814;2022-11-06T08:43:04;15.70;;;11.73;;
6053;SDS011;3055;50.886;14.814;2022-11-06T08:45:35;17.77;;;11.93;;
6053;SDS011;3055;50.886;14.814;2022-11-06T08:48:03;16.53;;;12.00;;
6053;SDS011;3055;50.886;14.814;2022-11-06T08:50:31;15.93;;;11.43;;
6053;SDS011;3055;50.886;14.814;2022-11-06T08:52:58;14.10;;;11.20;;
6053;SDS011;3055;50.886;14.814;2022-11-06T08:55:28;13.30;;;10.13;;
6053;SDS011;3055;50.886;14.814;2022-11-06T08:57:55;14.30;;;10.17;;
6053;SDS011;3055;50.886;14.814;2022-11-06T09:00:22;15.77;;;10.97;;
6053;SDS011;3055;50.886;14.814;2022-11-06T09:02:50;13.70;;;10.23;;
6053;SDS011;3055;50.886;14.814;2022-11-06T09:05:22;14.23;;;10.47;;
6053;SDS011;3055;50.886;14.814;2022-11-06T09:07:49;15.80;;;10.03;;
6053;SDS011;3055;50.886;14.814;2022-11-06T09:10:16;11.07;;;8.60;;
6053;SDS011;3055;50.886;14.814;2022-11-06T09:12:43;11.23;;;8.83;;
6053;SDS011;3055;50.886;14.814;2022-11-06T09:15:10;12.50;;;9.20;;
6053;SDS011;3055;50.886;14.814;2022-11-06T09:17:40;12.27;;;9.67;;
6053;SDS011;3055;50.886;14.814;2022-11-06T09:20:09;11.60;;;9.00;;
6053;SDS011;3055;50.886;14.814;2022-11-06T09:22:37;13.27;;;9.10;;
6053;SDS011;3055;50.886;14.814;2022-11-06T09:25:05;12.30;;;9.47;;
6053;SDS011;3055;50.886;14.814;2022-11-06T09:27:39;11.90;;;9.87;;
6053;SDS011;3055;50.886;14.814;2022-11-06T09:30:08;13.13;;;9.13;;
6053;SDS011;3055;50.886;14.814;2022-11-06T09:32:36;11.87;;;9.80;;
6053;SDS011;3055;50.886;14.814;2022-11-06T09:35:04;13.57;;;9.63;;
6053;SDS011;3055;50.886;14.814;2022-11-06T09:37:33;10.37;;;8.83;;
6053;SDS011;3055;50.886;14.814;2022-11-06T09:40:00;11.70;;;8.53;;
6053;SDS011;3055;50.886;14.814;2022-11-06T09:42:30;12.27;;;9.27;;
6053;SDS011;3055;50.886;14.814;2022-11-06T09:45:10;14.13;;;10.27;;
6053;SDS011;3055;50.886;14.814;2022-11-06T09:47:40;15.53;;;10.90;;
6053;SDS011;3055;50.886;14.814;2022-11-06T09:50:13;13.73;;;10.33;;
6053;SDS011;3055;50.886;14.814;2022-11-06T09:52:47;11.33;;;9.97;;
6053;SDS011;3055;50.886;14.814;2022-11-06T09:55:19;13.17;;;10.90;;
6053;SDS011;3055;50.886;14.814;2022-11-06T09:57:50;15.23;;;11.53;;
6053;SDS011;3055;50.886;14.814;2022-11-06T10:00:20;16.10;;;11.40;;
6053;SDS011;3055;50.886;14.814;2022-11-06T10:02:48;14.33;;;10.80;;
6053;SDS011;3055;50.886;14.814;2022-11-06T10:05:19;13.77;;;10.87;;
6053;SDS011;3055;50.886;14.814;2022-11-06T10:07:52;14.37;;;11.43;;
6053;SDS011;3055;50.886;14.814;2022-11-06T10:10:24;17.00;;;11.80;;
6053;SDS011;3055;50.886;14.814;2022-11-06T10:13:01;15.60;;;11.40;;
6053;SDS011;3055;50.886;14.814;2022-11-06T10:15:39;14.90;;;10.20;;
6053;SDS011;3055;50.886;14.814;2022-11-06T10:18:15;15.50;;;10.83;;
6053;SDS011;3055;50.886;14.814;2022-11-06T10:20:56;14.10;;;10.50;;
6053;SDS011;3055;50.886;14.814;2022-11-06T10:23:38;16.87;;;12.00;;
6053;SDS011;3055;50.886;14.814;2022-11-06T10:26:13;12.50;;;11.20;;
6053;SDS011;3055;50.886;14.814;2022-11-06T10:28:50;16.57;;;13.23;;
6053;SDS011;3055;50.886;14.814;2022-11-06T10:31:43;15.77;;;11.47;;
6053;SDS011;3055;50.886;14.814;2022-11-06T10:34:19;14.97;;;12.70;;
6053;SDS011;3055;50.886;14.814;2022-11-06T10:36:50;18.77;;;14.53;;
6053;SDS011;3055;50.886;14.814;2022-11-06T10:39:24;17.93;;;14.83;;
6053;SDS011;3055;50.886;14.814;2022-11-06T10:41:56;19.93;;;14.87;;
6053;SDS011;3055;50.886;14.814;2022-11-06T10:44:27;20.90;;;16.07;;
6053;SDS011;3055;50.886;14.814;2022-11-06T10:47:00;14.87;;;11.77;;
6053;SDS011;3055;50.886;14.814;2022-11-06T10:49:34;21.97;;;17.90;;
6053;SDS011;3055;50.886;14.814;2022-11-06T10:52:24;14.57;;;12.10;;
6053;SDS011;3055;50.886;14.814;2022-11-06T10:55:08;12.17;;;10.50;;
6053;SDS011;3055;50.886;14.814;2022-11-06T10:57:54;14.37;;;11.20;;
6053;SDS011;3055;50.886;14.814;2022-11-06T11:00:23;13.07;;;10.03;;
6053;SDS011;3055;50.886;14.814;2022-11-06T11:02:51;15.63;;;11.63;;
6053;SDS011;3055;50.886;14.814;2022-11-06T11:05:21;14.80;;;12.97;;
6053;SDS011;3055;50.886;14.814;2022-11-06T11:07:50;14.33;;;12.83;;
6053;SDS011;3055;50.886;14.814;2022-11-06T11:10:29;15.10;;;11.80;;
6053;SDS011;3055;50.886;14.814;2022-11-06T11:12:57;19.03;;;13.93;;
6053;SDS011;3055;50.886;14.814;2022-11-06T11:15:26;17.47;;;13.80;;
6053;SDS011;3055;50.886;14.814;2022-11-06T11:18:06;16.17;;;12.50;;
6053;SDS011;3055;50.886;14.814;2022-11-06T11:20:44;12.97;;;10.57;;
6053;SDS011;3055;50.886;14.814;2022-11-06T11:23:14;13.03;;;10.90;;
6053;SDS011;3055;50.886;14.814;2022-11-06T11:25:46;13.83;;;11.70;;
6053;SDS011;3055;50.886;14.814;2022-11-06T11:28:22;11.27;;;9.90;;
6053;SDS011;3055;50.886;14.814;2022-11-06T11:30:52;12.97;;;10.33;;
6053;SDS011;3055;50.886;14.814;2022-11-06T11:33:21;14.53;;;10.83;;
6053;SDS011;3055;50.886;14.814;2022-11-06T11:35:50;11.80;;;10.33;;
6053;SDS011;3055;50.886;14.814;2022-11-06T11:38:19;12.57;;;11.27;;
6053;SDS011;3055;50.886;14.814;2022-11-06T11:40:48;12.73;;;10.97;;
6053;SDS011;3055;50.886;14.814;2022-11-06T11:43:22;12.57;;;10.20;;
6053;SDS011;3055;50.886;14.814;2022-11-06T11:45:59;11.27;;;9.57;;
6053;SDS011;3055;50.886;14.814;2022-11-06T11:48:29;11.27;;;9.33;;
6053;SDS011;3055;50.886;14.814;2022-11-06T11:51:11;10.90;;;8.87;;
6053;SDS011;3055;50.886;14.814;2022-11-06T11:53:45;14.00;;;10.90;;
6053;SDS011;3055;50.886;14.814;2022-11-06T11:56:14;11.40;;;9.70;;
6053;SDS011;3055;50.886;14.814;2022-11-06T11:58:47;13.17;;;9.30;;
6053;SDS011;3055;50.886;14.814;2022-11-06T12:01:16;12.50;;;8.53;;
6053;SDS011;3055;50.886;14.814;2022-11-06T12:03:45;12.27;;;9.10;;
6053;SDS011;3055;50.886;14.814;2022-11-06T12:06:17;11.03;;;9.70;;
6053;SDS011;3055;50.886;14.814;2022-11-06T12:08:46;10.40;;;9.27;;
6053;SDS011;3055;50.886;14.814;2022-11-06T12:11:18;10.87;;;9.20;;
6053;SDS011;3055;50.886;14.814;2022-11-06T12:16:50;10.07;;;8.57;;
6053;SDS011;3055;50.886;14.814;2022-11-06T12:19:20;12.10;;;9.70;;
6053;SDS011;3055;50.886;14.814;2022-11-06T12:21:52;10.80;;;9.37;;
6053;SDS011;3055;50.886;14.814;2022-11-06T12:24:22;12.97;;;8.70;;
6053;SDS011;3055;50.886;14.814;2022-11-06T12:26:54;10.70;;;8.70;;
6053;SDS011;3055;50.886;14.814;2022-11-06T12:29:26;9.30;;;8.27;;
6053;SDS011;3055;50.886;14.814;2022-11-06T12:31:57;14.37;;;10.07;;
6053;SDS011;3055;50.886;14.814;2022-11-06T12:34:30;13.23;;;10.20;;
6053;SDS011;3055;50.886;14.814;2022-11-06T12:37:12;12.33;;;10.40;;
6053;SDS011;3055;50.886;14.814;2022-11-06T12:39:43;10.03;;;8.80;;
6053;SDS011;3055;50.886;14.814;2022-11-06T12:42:18;10.27;;;9.17;;
6053;SDS011;3055;50.886;14.814;2022-11-06T12:44:47;11.50;;;9.43;;
6053;SDS011;3055;50.886;14.814;2022-11-06T12:47:18;11.60;;;9.67;;
6053;SDS011;3055;50.886;14.814;2022-11-06T12:49:58;11.10;;;9.20;;
6053;SDS011;3055;50.886;14.814;2022-11-06T12:52:40;12.83;;;10.03;;
6053;SDS011;3055;50.886;14.814;2022-11-06T12:55:22;12.50;;;10.03;;
6053;SDS011;3055;50.886;14.814;2022-11-06T12:58:03;11.33;;;10.07;;
6053;SDS011;3055;50.886;14.814;2022-11-06T13:00:44;15.50;;;11.33;;
6053;SDS011;3055;50.886;14.814;2022-11-06T13:03:40;16.63;;;11.33;;
6053;SDS011;3055;50.886;14.814;2022-11-06T13:06:19;16.53;;;12.23;;
6053;SDS011;3055;50.886;14.814;2022-11-06T13:08:56;17.63;;;11.97;;
6053;SDS011;3055;50.886;14.814;2022-11-06T13:11:32;16.33;;;11.73;;
6053;SDS011;3055;50.886;14.814;2022-11-06T13:14:15;15.13;;;11.03;;
6053;SDS011;3055;50.886;14.814;2022-11-06T13:16:52;20.20;;;12.77;;
6053;SDS011;3055;50.886;14.814;2022-11-06T13:19:27;15.70;;;11.47;;
6053;SDS011;3055;50.886;14.814;2022-11-06T13:22:01;15.03;;;11.30;;
6053;SDS011;3055;50.886;14.814;2022-11-06T13:24:45;15.10;;;12.13;;
6053;SDS011;3055;50.886;14.814;2022-11-06T13:27:18;16.80;;;11.40;;
6053;SDS011;3055;50.886;14.814;2022-11-06T13:29:56;19.37;;;12.83;;
6053;SDS011;3055;50.886;14.814;2022-11-06T13:32:27;15.57;;;12.07;;
6053;SDS011;3055;50.886;14.814;2022-11-06T13:34:57;13.87;;;11.70;;
6053;SDS011;3055;50.886;14.814;2022-11-06T13:37:30;17.40;;;11.47;;
6053;SDS011;3055;50.886;14.814;2022-11-06T13:40:04;16.17;;;11.90;;
6053;SDS011;3055;50.886;14.814;2022-11-06T13:42:44;14.00;;;12.00;;
6053;SDS011;3055;50.886;14.814;2022-11-06T13:45:18;14.33;;;11.20;;
6053;SDS011;3055;50.886;14.814;2022-11-06T13:47:51;18.63;;;12.63;;
6053;SDS011;3055;50.886;14.814;2022-11-06T13:50:29;14.67;;;11.77;;
6053;SDS011;3055;50.886;14.814;2022-11-06T13:53:02;20.63;;;14.63;;
6053;SDS011;3055;50.886;14.814;2022-11-06T13:55:42;13.67;;;11.77;;
6053;SDS011;3055;50.886;14.814;2022-11-06T13:58:23;15.77;;;11.93;;
6053;SDS011;3055;50.886;14.814;2022-11-06T14:01:17;15.83;;;12.03;;
6053;SDS011;3055;50.886;14.814;2022-11-06T14:04:10;15.90;;;12.33;;
6053;SDS011;3055;50.886;14.814;2022-11-06T14:07:03;16.37;;;12.80;;
6053;SDS011;3055;50.886;14.814;2022-11-06T14:09:33;14.60;;;12.10;;
6053;SDS011;3055;50.886;14.814;2022-11-06T14:12:02;15.50;;;12.63;;
6053;SDS011;3055;50.886;14.814;2022-11-06T14:14:32;15.13;;;12.93;;
6053;SDS011;3055;50.886;14.814;2022-11-06T14:17:10;15.60;;;13.37;;
6053;SDS011;3055;50.886;14.814;2022-11-06T14:19:58;15.17;;;12.10;;
6053;SDS011;3055;50.886;14.814;2022-11-06T14:22:28;17.03;;;12.20;;
6053;SDS011;3055;50.886;14.814;2022-11-06T14:24:57;17.70;;;11.93;;
6053;SDS011;3055;50.886;14.814;2022-11-06T14:30:40;17.10;;;12.57;;
6053;SDS011;3055;50.886;14.814;2022-11-06T14:33:55;16.00;;;12.17;;
6053;SDS011;3055;50.886;14.814;2022-11-06T14:36:27;16.90;;;12.47;;
6053;SDS011;3055;50.886;14.814;2022-11-06T14:38:56;14.67;;;11.50;;
6053;SDS011;3055;50.886;14.814;2022-11-06T14:44:26;16.17;;;12.77;;
6053;SDS011;3055;50.886;14.814;2022-11-06T14:46:59;14.90;;;12.13;;
6053;SDS011;3055;50.886;14.814;2022-11-06T14:49:29;14.90;;;12.90;;
6053;SDS011;3055;50.886;14.814;2022-11-06T14:52:07;16.97;;;12.50;;
6053;SDS011;3055;50.886;14.814;2022-11-06T14:54:37;16.00;;;11.73;;
6053;SDS011;3055;50.886;14.814;2022-11-06T14:57:06;16.77;;;13.13;;
6053;SDS011;3055;50.886;14.814;2022-11-06T14:59:37;15.77;;;11.40;;
6053;SDS011;3055;50.886;14.814;2022-11-06T15:02:10;15.90;;;12.70;;
6053;SDS011;3055;50.886;14.814;2022-11-06T15:04:43;19.60;;;12.90;;
6053;SDS011;3055;50.886;14.814;2022-11-06T15:07:31;16.90;;;13.37;;
6053;SDS011;3055;50.886;14.814;2022-11-06T15:09:59;19.77;;;13.13;;
6053;SDS011;3055;50.886;14.814;2022-11-06T15:15:30;18.00;;;13.23;;